Time;durP1;ratioP1;P1;durP2;ratioP2;P2;SDS_P1;SDS_P2;PMS_P1;PMS_P2;Temp;Humidity;BMP_temperature;BMP_pressure;BME280_temperature;BME280_humidity;BME280_pressure;Samples;Min_cycle;Max_cycle;Signal;HPM_P1;HPM_P2
2024/04/09 00:01:42;;;;;;;12.77;9.40;;;14.60;99.90;;;;;;5529051;25;20559;-64
2024/04/09 00:04:09;;;;;;;11.10;8.53;;;14.70;99.90;;;;;;5528636;25;20288;-64
2024/04/09 00:06:37;;;;;;;17.93;9.80;;;14.60;99.90;;;;;;5529235;25;20509;-63
2024/04/09 00:09:06;;;;;;;12.43;7.70;;;14.60;99.90;;;;;;5525929;26;20449;-64
2024/04/09 00:11:35;;;;;;;14.03;8.30;;;14.60;99.90;;;;;;5527872;25;20484;-64
2024/04/09 00:14:04;;;;;;;10.83;8.23;;;14.60;99.90;;;;;;5528255;25;20472;-63
2024/04/09 00:16:33;;;;;;;12.00;8.57;;;14.60;99.90;;;;;;5527953;25;20437;-63
2024/04/09 00:18:59;;;;;;;11.23;8.93;;;14.60;99.90;;;;;;5528045;25;20440;-63
2024/04/09 00:21:28;;;;;;;16.10;9.03;;;14.60;99.90;;;;;;5528308;25;20501;-64
2024/04/09 00:23:56;;;;;;;12.03;8.80;;;14.50;99.90;;;;;;5530537;25;20498;-63
2024/04/09 00:26:31;;;;;;;11.67;8.37;;;14.50;99.90;;;;;;5529191;25;20457;-63
2024/04/09 00:28:57;;;;;;;10.97;8.40;;;14.50;99.90;;;;;;5531075;25;20491;-64
2024/04/09 00:31:26;;;;;;;12.03;8.80;;;14.50;99.90;;;;;;5531653;25;20800;-64
2024/04/09 00:33:52;;;;;;;13.23;9.13;;;14.50;99.90;;;;;;5531995;25;20208;-63
2024/04/09 00:36:20;;;;;;;15.10;8.60;;;14.50;99.90;;;;;;5531722;25;21046;-63
2024/04/09 00:38:46;;;;;;;13.90;7.50;;;14.60;99.90;;;;;;5531559;25;20255;-64
2024/04/09 00:41:15;;;;;;;17.27;8.73;;;14.60;99.90;;;;;;5532042;25;20497;-65
2024/04/09 00:43:45;;;;;;;16.20;8.83;;;14.60;99.90;;;;;;5534853;25;20483;-64
2024/04/09 00:46:14;;;;;;;11.53;8.50;;;14.70;99.90;;;;;;5536033;25;20440;-63
2024/04/09 00:48:41;;;;;;;16.53;9.07;;;14.70;99.90;;;;;;5540332;25;20501;-64
2024/04/09 00:51:12;;;;;;;14.50;9.30;;;14.70;99.90;;;;;;5543490;25;21064;-63
2024/04/09 00:53:39;;;;;;;18.83;8.10;;;14.80;99.90;;;;;;5537257;25;21045;-65
2024/04/09 00:56:09;;;;;;;14.70;7.63;;;14.80;99.90;;;;;;5535703;25;20558;-63
2024/04/09 00:58:35;;;;;;;11.23;7.73;;;14.80;99.90;;;;;;5535683;25;20500;-64
2024/04/09 01:01:06;;;;;;;13.93;7.53;;;14.80;99.90;;;;;;5536388;25;20570;-64
2024/04/09 01:03:32;;;;;;;12.00;8.10;;;14.80;99.90;;;;;;5538877;25;20512;-63
2024/04/09 01:06:02;;;;;;;14.73;7.50;;;14.80;99.90;;;;;;5539029;25;20531;-65
2024/04/09 01:08:28;;;;;;;12.87;7.73;;;14.80;99.90;;;;;;5539595;25;20243;-64
2024/04/09 01:10:56;;;;;;;9.17;8.03;;;14.80;99.90;;;;;;5535578;25;20511;-64
2024/04/09 01:13:22;;;;;;;11.13;8.40;;;14.80;99.90;;;;;;5535274;25;20741;-64
2024/04/09 01:15:50;;;;;;;9.17;7.87;;;14.90;99.90;;;;;;5535261;25;20393;-64
2024/04/09 01:18:19;;;;;;;17.50;8.63;;;14.90;99.90;;;;;;5535881;25;20251;-64
2024/04/09 01:20:47;;;;;;;9.20;7.70;;;14.90;99.90;;;;;;5536571;25;20939;-63
2024/04/09 01:23:15;;;;;;;11.37;7.40;;;15.00;99.90;;;;;;5538151;25;21239;-64
2024/04/09 01:25:44;;;;;;;13.87;8.10;;;15.00;99.90;;;;;;5535497;25;20445;-63
2024/04/09 01:28:10;;;;;;;10.87;7.60;;;15.10;99.90;;;;;;5534634;25;20495;-64
2024/04/09 01:30:38;;;;;;;9.10;7.10;;;15.10;99.90;;;;;;5532329;25;21052;-64
2024/04/09 01:33:04;;;;;;;15.37;7.50;;;15.20;99.90;;;;;;5530652;25;20224;-64
2024/04/09 01:35:33;;;;;;;10.27;7.63;;;15.20;99.90;;;;;;5530767;25;20444;-62
2024/04/09 01:37:58;;;;;;;13.67;7.43;;;15.20;99.90;;;;;;5529799;25;20566;-64
2024/04/09 01:40:30;;;;;;;10.73;7.60;;;15.30;99.90;;;;;;5530212;25;20453;-64
2024/04/09 01:42:56;;;;;;;11.03;8.37;;;15.30;99.90;;;;;;5529707;25;20598;-64
2024/04/09 01:45:24;;;;;;;13.30;7.90;;;15.30;99.90;;;;;;5534726;25;20806;-63
2024/04/09 01:47:51;;;;;;;10.00;7.40;;;15.30;99.90;;;;;;5535192;25;20325;-64
2024/04/09 01:50:20;;;;;;;13.77;7.87;;;15.30;99.90;;;;;;5536740;25;20998;-64
2024/04/09 01:52:48;;;;;;;12.67;7.10;;;15.30;99.90;;;;;;5534536;25;20460;-63
2024/04/09 01:55:17;;;;;;;14.87;7.93;;;15.30;99.90;;;;;;5540858;25;20815;-64
2024/04/09 01:57:46;;;;;;;13.33;7.27;;;15.40;99.90;;;;;;5540547;25;20507;-63
2024/04/09 02:00:19;;;;;;;19.53;7.37;;;15.40;99.90;;;;;;5535274;25;20452;-64
2024/04/09 02:02:46;;;;;;;12.70;7.20;;;15.30;99.90;;;;;;5534718;25;20469;-64
2024/04/09 02:05:14;;;;;;;12.80;7.43;;;15.30;99.90;;;;;;5531485;25;20500;-63
2024/04/09 02:07:40;;;;;;;10.17;6.60;;;15.40;99.90;;;;;;5532433;25;20501;-64
2024/04/09 02:10:11;;;;;;;15.43;7.90;;;15.40;99.90;;;;;;5539232;25;20453;-64
2024/04/09 02:12:38;;;;;;;13.90;7.40;;;15.40;99.90;;;;;;5533906;25;20469;-63
2024/04/09 02:15:12;;;;;;;10.43;6.67;;;15.40;99.90;;;;;;5531706;25;20453;-63
2024/04/09 02:17:38;;;;;;;14.20;6.80;;;15.40;99.90;;;;;;5530064;25;20499;-64
2024/04/09 02:20:09;;;;;;;8.03;6.20;;;15.40;99.90;;;;;;5529533;25;20445;-63
2024/04/09 02:22:35;;;;;;;12.53;6.50;;;15.50;99.90;;;;;;5528941;25;20473;-63
2024/04/09 02:25:04;;;;;;;8.90;6.60;;;15.50;99.90;;;;;;5528953;25;21071;-64
2024/04/09 02:27:30;;;;;;;16.03;6.73;;;15.50;99.90;;;;;;5528399;25;20440;-64
2024/04/09 02:29:59;;;;;;;10.37;6.37;;;15.50;99.90;;;;;;5528255;25;20547;-63
2024/04/09 02:32:27;;;;;;;11.57;5.80;;;15.50;99.90;;;;;;5529209;25;20246;-64
2024/04/09 02:34:56;;;;;;;12.33;6.83;;;15.50;99.90;;;;;;5529150;25;20985;-63
2024/04/09 02:37:22;;;;;;;9.37;6.70;;;15.60;99.90;;;;;;5529822;25;21103;-63
2024/04/09 02:39:50;;;;;;;15.80;7.10;;;15.50;99.90;;;;;;5529727;25;20460;-63
2024/04/09 02:42:16;;;;;;;8.70;6.50;;;15.60;99.90;;;;;;5529267;25;20532;-63
2024/04/09 02:44:44;;;;;;;12.70;7.13;;;15.60;99.90;;;;;;5529503;25;20449;-64
2024/04/09 02:47:10;;;;;;;11.20;5.33;;;15.60;99.90;;;;;;5529339;25;20721;-63
2024/04/09 02:49:43;;;;;;;8.83;6.20;;;15.60;99.90;;;;;;5528730;25;20445;-63
2024/04/09 02:52:09;;;;;;;11.70;6.57;;;15.60;99.90;;;;;;5529633;25;20280;-64
2024/04/09 02:54:39;;;;;;;8.83;5.77;;;15.60;99.90;;;;;;5528512;25;20566;-64
2024/04/09 02:57:05;;;;;;;11.30;5.90;;;15.60;99.90;;;;;;5528225;25;20954;-63
2024/04/09 02:59:33;;;;;;;8.50;4.93;;;15.60;99.90;;;;;;5528577;25;20504;-64
2024/04/09 03:01:59;;;;;;;7.17;5.37;;;15.60;99.90;;;;;;5528356;25;20275;-64
2024/04/09 03:04:27;;;;;;;9.33;7.30;;;15.60;99.90;;;;;;5528713;25;20535;-64
2024/04/09 03:06:56;;;;;;;13.30;6.43;;;15.60;99.90;;;;;;5528449;25;20220;-63
2024/04/09 03:09:25;;;;;;;12.67;6.63;;;15.60;99.90;;;;;;5528419;25;20437;-64
2024/04/09 03:11:51;;;;;;;9.40;5.40;;;15.60;99.90;;;;;;5528927;25;20982;-64
2024/04/09 03:14:19;;;;;;;11.40;7.27;;;15.60;99.90;;;;;;5529017;25;20464;-63
2024/04/09 03:16:45;;;;;;;17.13;7.00;;;15.50;99.90;;;;;;5529238;25;20211;-64
2024/04/09 03:19:13;;;;;;;10.67;6.60;;;15.60;99.90;;;;;;5529378;25;20448;-64
2024/04/09 03:21:39;;;;;;;10.63;7.00;;;15.50;99.90;;;;;;5530962;25;20337;-63
2024/04/09 03:24:10;;;;;;;15.00;6.80;;;15.50;99.90;;;;;;5531243;25;20448;-63
2024/04/09 03:26:36;;;;;;;10.17;6.73;;;15.50;99.90;;;;;;5536277;25;20273;-63
2024/04/09 03:29:05;;;;;;;9.33;5.70;;;15.50;99.90;;;;;;5538970;25;20858;-63
2024/04/09 03:31:30;;;;;;;12.87;6.27;;;15.50;99.90;;;;;;5539974;25;20469;-64
2024/04/09 03:34:00;;;;;;;11.80;7.00;;;15.50;99.90;;;;;;5539805;25;20538;-63
2024/04/09 03:36:26;;;;;;;12.87;7.03;;;15.50;99.90;;;;;;5536024;25;20255;-63
2024/04/09 03:38:55;;;;;;;15.50;6.77;;;15.40;99.90;;;;;;5534206;25;20464;-64
2024/04/09 03:41:23;;;;;;;8.83;7.33;;;15.40;99.90;;;;;;5532853;25;20497;-63
2024/04/09 03:43:51;;;;;;;13.83;7.40;;;15.40;99.90;;;;;;5532640;25;20500;-64
2024/04/09 03:46:17;;;;;;;16.43;7.90;;;15.40;99.90;;;;;;5530075;25;20457;-64
2024/04/09 03:48:47;;;;;;;12.03;7.90;;;15.40;99.90;;;;;;5528224;25;20448;-63
2024/04/09 03:51:14;;;;;;;13.37;7.30;;;15.40;99.90;;;;;;5527737;25;20630;-63
2024/04/09 03:53:43;;;;;;;13.13;7.10;;;15.30;99.90;;;;;;5528196;25;20521;-63
2024/04/09 03:56:09;;;;;;;18.13;8.47;;;15.40;99.90;;;;;;5527874;25;20545;-63
2024/04/09 03:58:41;;;;;;;10.30;7.13;;;15.30;99.90;;;;;;5527760;25;20448;-63
2024/04/09 04:01:08;;;;;;;9.00;7.17;;;15.30;99.90;;;;;;5527793;25;20452;-63
2024/04/09 04:03:38;;;;;;;14.57;7.27;;;15.40;99.90;;;;;;5528608;25;21005;-63
2024/04/09 04:06:04;;;;;;;9.10;7.40;;;15.40;99.90;;;;;;5526900;25;20453;-63
2024/04/09 04:08:34;;;;;;;13.97;7.83;;;15.30;99.90;;;;;;5528542;25;20440;-64
2024/04/09 04:13:34;;;;;;;16.53;6.97;;;15.40;99.90;;;;;;5510469;25;20584;-63
2024/04/09 04:16:01;;;;;;;12.37;7.37;;;15.30;99.90;;;;;;5473767;26;20561;-64
2024/04/09 04:18:29;;;;;;;12.80;7.33;;;15.30;99.90;;;;;;5473551;26;20991;-64
2024/04/09 04:20:56;;;;;;;10.70;7.50;;;15.30;99.90;;;;;;5472904;26;20515;-63
2024/04/09 04:23:25;;;;;;;13.10;6.63;;;15.30;99.90;;;;;;5472698;26;20530;-63
2024/04/09 04:26:09;;;;;;;10.43;6.90;;;15.40;99.90;;;;;;5472596;26;20462;-62
2024/04/09 04:28:42;;;;;;;9.27;7.03;;;15.30;99.90;;;;;;5472421;26;20443;-64
2024/04/09 04:31:09;;;;;;;7.93;6.80;;;15.40;99.90;;;;;;5475328;26;20450;-64
2024/04/09 04:33:38;;;;;;;15.93;6.80;;;15.30;99.90;;;;;;5479840;26;20446;-63
2024/04/09 04:36:05;;;;;;;9.80;6.30;;;15.40;99.90;;;;;;5477102;26;20552;-63
2024/04/09 04:38:33;;;;;;;9.33;6.03;;;15.30;99.90;;;;;;5476156;26;20507;-63
2024/04/09 04:41:00;;;;;;;12.33;6.60;;;15.30;99.90;;;;;;5477454;26;20454;-63
2024/04/09 04:43:29;;;;;;;13.07;7.17;;;15.30;99.90;;;;;;5475229;26;20519;-64
2024/04/09 04:45:57;;;;;;;10.37;6.27;;;15.30;99.90;;;;;;5474688;26;20547;-63
2024/04/09 04:48:27;;;;;;;9.03;6.00;;;15.30;99.90;;;;;;5473938;26;20447;-64
2024/04/09 04:50:53;;;;;;;12.83;6.20;;;15.30;99.90;;;;;;5473812;26;20463;-63
2024/04/09 04:53:22;;;;;;;16.60;9.73;;;15.30;99.90;;;;;;5472675;26;20522;-64
2024/04/09 04:55:49;;;;;;;12.17;6.97;;;15.30;99.90;;;;;;5473056;26;20514;-63
2024/04/09 04:58:19;;;;;;;16.13;6.23;;;15.40;99.90;;;;;;5474371;26;20447;-63
2024/04/09 05:00:45;;;;;;;15.30;7.50;;;15.40;99.90;;;;;;5473103;26;20499;-63
2024/04/09 05:03:16;;;;;;;13.47;6.77;;;15.30;99.90;;;;;;5476360;26;20478;-63
2024/04/09 05:05:42;;;;;;;12.23;8.83;;;15.30;99.90;;;;;;5475844;26;20493;-64
2024/04/09 05:08:11;;;;;;;9.80;5.47;;;15.40;99.90;;;;;;5475130;26;20451;-64
2024/04/09 05:10:37;;;;;;;14.43;6.30;;;15.40;99.90;;;;;;5472488;26;20518;-64
2024/04/09 05:13:06;;;;;;;13.83;6.33;;;15.30;99.90;;;;;;5504712;26;20521;-64
2024/04/09 05:15:32;;;;;;;13.97;6.17;;;15.30;99.90;;;;;;5508558;26;20493;-63
2024/04/09 05:18:01;;;;;;;13.77;5.80;;;15.40;99.90;;;;;;5509112;26;20800;-63
2024/04/09 05:20:30;;;;;;;11.10;6.53;;;15.40;99.90;;;;;;5508920;26;20494;-63
2024/04/09 05:22:59;;;;;;;9.70;6.77;;;15.40;99.90;;;;;;5505478;26;20477;-63
2024/04/09 05:25:26;;;;;;;15.27;6.10;;;15.40;99.90;;;;;;5492535;26;20926;-65
2024/04/09 05:27:55;;;;;;;14.03;6.27;;;15.40;99.90;;;;;;5492887;26;20446;-63
2024/04/09 05:30:21;;;;;;;11.90;6.53;;;15.50;99.90;;;;;;5492790;26;20529;-62
2024/04/09 05:32:49;;;;;;;12.57;6.50;;;15.50;99.90;;;;;;5492380;26;20544;-64
2024/04/09 05:35:15;;;;;;;13.57;7.37;;;15.50;99.90;;;;;;5492846;26;20446;-62
2024/04/09 05:37:46;;;;;;;15.80;6.73;;;15.60;99.90;;;;;;5493180;26;20450;-63
2024/04/09 05:40:12;;;;;;;10.10;6.03;;;15.60;99.90;;;;;;5492280;26;20555;-64
2024/04/09 05:42:46;;;;;;;12.87;6.57;;;15.70;99.90;;;;;;5492284;26;20975;-62
2024/04/09 05:45:15;;;;;;;13.63;6.10;;;15.70;99.90;;;;;;5491967;26;20212;-64
2024/04/09 05:47:43;;;;;;;11.93;5.33;;;15.80;99.90;;;;;;5492621;26;20446;-63
2024/04/09 05:50:09;;;;;;;11.97;5.00;;;15.80;99.90;;;;;;5493720;26;20581;-64
2024/04/09 05:52:38;;;;;;;17.70;7.60;;;15.90;99.90;;;;;;5493840;26;20466;-63
2024/04/09 05:55:06;;;;;;;14.57;5.40;;;16.00;99.90;;;;;;5493931;26;20807;-63
2024/04/09 05:57:36;;;;;;;14.10;6.60;;;16.20;99.90;;;;;;5493232;26;20531;-64
2024/04/09 06:00:07;;;;;;;10.97;5.40;;;16.30;99.90;;;;;;5493146;26;20507;-64
2024/04/09 06:02:36;;;;;;;10.63;5.30;;;16.40;99.90;;;;;;5493059;26;20491;-64
2024/04/09 06:05:02;;;;;;;19.63;6.70;;;16.40;99.90;;;;;;5492305;26;20532;-63
2024/04/09 06:07:31;;;;;;;12.43;5.40;;;16.50;99.90;;;;;;5491855;26;20901;-64
2024/04/09 06:09:57;;;;;;;10.30;4.90;;;16.60;99.90;;;;;;5492250;26;20454;-63
2024/04/09 06:12:28;;;;;;;13.87;5.73;;;16.60;99.90;;;;;;5491921;26;20518;-63
2024/04/09 06:14:54;;;;;;;12.70;4.27;;;16.70;99.90;;;;;;5491897;26;20555;-64
2024/04/09 06:17:23;;;;;;;17.30;4.40;;;16.80;99.90;;;;;;5492869;26;20453;-64
2024/04/09 06:19:49;;;;;;;13.93;4.33;;;16.90;99.90;;;;;;5493503;26;20533;-63
2024/04/09 06:22:18;;;;;;;15.37;4.90;;;17.10;99.90;;;;;;5492072;26;20466;-63
2024/04/09 06:24:47;;;;;;;14.73;4.70;;;17.30;99.90;;;;;;5492449;26;20557;-63
2024/04/09 06:27:16;;;;;;;10.53;4.43;;;17.50;99.90;;;;;;5492503;26;20510;-64
2024/04/09 06:29:47;;;;;;;9.40;4.10;;;17.60;99.90;;;;;;5492861;26;20501;-64
2024/04/09 06:32:16;;;;;;;10.23;3.70;;;17.70;99.90;;;;;;5492036;26;20461;-63
2024/04/09 06:34:42;;;;;;;17.30;4.60;;;17.70;99.90;;;;;;5491462;26;20450;-64
2024/04/09 06:37:10;;;;;;;18.03;4.23;;;17.70;99.90;;;;;;5491633;26;20447;-63
2024/04/09 06:39:36;;;;;;;16.90;4.07;;;17.80;99.90;;;;;;5492118;26;20506;-64
2024/04/09 06:42:05;;;;;;;13.20;4.33;;;17.80;99.90;;;;;;5491898;26;20842;-64
2024/04/09 06:44:31;;;;;;;11.43;3.80;;;17.80;99.90;;;;;;5493162;26;20450;-63
2024/04/09 06:47:03;;;;;;;11.43;4.03;;;17.80;99.90;;;;;;5494356;26;20438;-64
2024/04/09 06:49:28;;;;;;;10.23;3.53;;;17.70;99.90;;;;;;5495110;26;20661;-65
2024/04/09 06:51:57;;;;;;;11.53;3.87;;;17.70;99.90;;;;;;5493131;26;20474;-64
2024/04/09 06:54:23;;;;;;;9.73;3.17;;;17.70;99.90;;;;;;5495453;26;20372;-65
2024/04/09 06:56:51;;;;;;;8.07;3.20;;;17.70;99.90;;;;;;5500182;26;20469;-63
2024/04/09 06:59:18;;;;;;;8.97;3.33;;;17.70;99.90;;;;;;5494085;26;20269;-63
2024/04/09 07:01:46;;;;;;;10.93;3.00;;;17.60;99.90;;;;;;5495950;26;20523;-63
2024/04/09 07:04:14;;;;;;;11.07;3.60;;;17.60;99.90;;;;;;5499277;26;20540;-64
2024/04/09 07:06:43;;;;;;;9.67;3.23;;;17.60;99.90;;;;;;5502928;26;20454;-64
2024/04/09 07:09:09;;;;;;;10.20;2.60;;;17.60;99.90;;;;;;5464627;26;20507;-64
2024/04/09 07:11:38;;;;;;;6.53;3.40;;;17.70;99.90;;;;;;5498129;26;20482;-63
2024/04/09 07:14:05;;;;;;;13.27;3.03;;;17.60;99.90;;;;;;5498808;26;20206;-63
2024/04/09 07:16:34;;;;;;;11.57;3.70;;;17.60;99.90;;;;;;5497648;26;20450;-64
2024/04/09 07:19:00;;;;;;;9.70;2.90;;;17.60;99.90;;;;;;5497223;26;20458;-64
2024/04/09 07:21:31;;;;;;;8.20;3.40;;;17.60;99.90;;;;;;5497404;26;20450;-63
2024/04/09 07:23:56;;;;;;;9.40;4.30;;;17.60;99.90;;;;;;5498768;26;20764;-64
2024/04/09 07:26:25;;;;;;;8.00;3.03;;;17.60;99.90;;;;;;5500041;26;20458;-63
2024/04/09 07:28:51;;;;;;;7.90;2.87;;;17.60;99.90;;;;;;5500921;26;20605;-62
2024/04/09 07:31:19;;;;;;;7.73;3.00;;;17.60;99.90;;;;;;5495789;26;20541;-64
2024/04/09 07:33:47;;;;;;;4.63;3.47;;;17.60;99.90;;;;;;5491980;26;20579;-64
2024/04/09 07:36:15;;;;;;;7.47;2.90;;;17.70;99.90;;;;;;5491229;26;20454;-62
2024/04/09 07:38:44;;;;;;;8.00;3.30;;;17.70;99.90;;;;;;5492278;26;21090;-63
2024/04/09 07:41:12;;;;;;;7.43;3.50;;;17.80;99.90;;;;;;5491730;26;20447;-63
2024/04/09 07:43:38;;;;;;;8.83;3.43;;;17.80;99.90;;;;;;5491694;26;20525;-64
2024/04/09 07:46:07;;;;;;;10.80;4.23;;;17.90;99.90;;;;;;5491567;26;20568;-63
2024/04/09 07:48:33;;;;;;;8.97;3.67;;;17.90;99.90;;;;;;5492877;26;20212;-64
2024/04/09 07:51:03;;;;;;;11.67;3.33;;;18.00;99.90;;;;;;5494581;26;20603;-63
2024/04/09 07:53:29;;;;;;;6.17;2.83;;;18.00;99.90;;;;;;5496006;26;20329;-64
2024/04/09 07:56:00;;;;;;;7.77;3.43;;;18.10;99.90;;;;;;5494524;26;20899;-64
2024/04/09 07:58:26;;;;;;;9.17;3.70;;;18.10;99.90;;;;;;5492604;26;20319;-64
2024/04/09 08:00:54;;;;;;;8.47;3.07;;;18.20;99.90;;;;;;5492071;26;20796;-63
2024/04/09 08:03:20;;;;;;;8.47;3.30;;;18.20;99.90;;;;;;5493759;26;20521;-64
2024/04/09 08:05:49;;;;;;;6.90;2.90;;;18.30;99.90;;;;;;5496309;26;20482;-65
2024/04/09 08:08:15;;;;;;;6.87;2.77;;;18.30;99.90;;;;;;5493971;26;20264;-63
2024/04/09 08:10:43;;;;;;;10.57;2.70;;;18.30;99.90;;;;;;5491275;26;21073;-62
2024/04/09 08:13:12;;;;;;;9.13;2.80;;;18.40;99.90;;;;;;5491212;26;20510;-64
2024/04/09 08:15:40;;;;;;;11.00;2.90;;;18.40;99.90;;;;;;5490624;26;20521;-64
2024/04/09 08:18:06;;;;;;;8.47;2.73;;;18.40;99.70;;;;;;5490770;26;20458;-64
2024/04/09 08:20:34;;;;;;;7.23;2.77;;;18.40;99.50;;;;;;5490848;26;20909;-64
2024/04/09 08:23:01;;;;;;;6.03;2.70;;;18.40;99.50;;;;;;5491384;26;20313;-64
2024/04/09 08:25:29;;;;;;;9.10;3.00;;;18.40;99.50;;;;;;5501510;26;20522;-63
2024/04/09 08:27:56;;;;;;;5.70;2.83;;;18.30;99.60;;;;;;5497676;26;20451;-64
2024/04/09 08:30:28;;;;;;;7.43;3.20;;;18.30;99.80;;;;;;5496250;26;20461;-64
2024/04/09 08:32:55;;;;;;;4.50;2.60;;;18.30;99.80;;;;;;5493216;26;20461;-64
2024/04/09 08:35:23;;;;;;;3.60;2.57;;;18.30;99.80;;;;;;5490023;26;20449;-63
2024/04/09 08:37:49;;;;;;;7.03;2.60;;;18.30;99.90;;;;;;5490717;26;20457;-65
2024/04/09 08:40:20;;;;;;;7.40;2.20;;;18.20;99.90;;;;;;5490788;26;20559;-64
2024/04/09 08:42:50;;;;;;;9.60;2.70;;;18.20;99.90;;;;;;5490705;26;20269;-65
2024/04/09 08:45:18;;;;;;;8.77;3.00;;;18.20;99.90;;;;;;5490232;26;20454;-63
2024/04/09 08:47:48;;;;;;;11.20;2.93;;;18.20;99.90;;;;;;5490435;26;20462;-64
2024/04/09 08:50:16;;;;;;;6.47;3.00;;;18.20;99.90;;;;;;5490280;26;20495;-64
2024/04/09 08:52:43;;;;;;;6.13;2.73;;;18.30;99.90;;;;;;5489509;26;20462;-63
2024/04/09 08:55:11;;;;;;;6.77;3.10;;;18.30;99.90;;;;;;5492625;26;20446;-64
2024/04/09 08:57:38;;;;;;;6.17;3.00;;;18.30;99.90;;;;;;5491786;26;20454;-63
2024/04/09 09:00:07;;;;;;;7.47;3.90;;;18.30;99.90;;;;;;5493876;26;21089;-63
2024/04/09 09:02:35;;;;;;;7.63;3.33;;;18.30;99.90;;;;;;5495218;26;20462;-63
2024/04/09 09:05:06;;;;;;;6.13;3.60;;;18.30;99.90;;;;;;5494647;26;20506;-64
2024/04/09 09:07:32;;;;;;;8.30;4.37;;;18.40;99.90;;;;;;5494607;26;20438;-63
2024/04/09 09:10:06;;;;;;;6.67;4.50;;;18.50;99.60;;;;;;5496980;26;20506;-64
2024/04/09 09:12:32;;;;;;;10.17;5.33;;;18.70;99.20;;;;;;5496187;26;20462;-65
2024/04/09 09:15:01;;;;;;;7.53;5.37;;;18.80;98.50;;;;;;5495732;26;20502;-64
2024/04/09 09:17:29;;;;;;;8.80;6.30;;;18.90;98.40;;;;;;5500227;26;20213;-63
2024/04/09 09:20:01;;;;;;;8.87;5.87;;;19.00;97.90;;;;;;5502812;26;20529;-64
2024/04/09 09:22:30;;;;;;;6.63;6.03;;;19.10;97.70;;;;;;5504752;26;20457;-64
2024/04/09 09:25:05;;;;;;;8.10;6.20;;;19.20;97.00;;;;;;5500511;26;20566;-65
2024/04/09 09:27:30;;;;;;;10.70;7.33;;;19.20;96.60;;;;;;5499728;26;20449;-64
2024/04/09 09:29:59;;;;;;;9.83;7.50;;;19.30;96.80;;;;;;5497310;26;20498;-63
2024/04/09 09:32:25;;;;;;;17.13;9.90;;;19.40;96.40;;;;;;5497263;26;20299;-64
2024/04/09 09:34:56;;;;;;;13.17;9.03;;;19.40;96.30;;;;;;5496199;26;20940;-65
2024/04/09 09:37:23;;;;;;;10.67;9.60;;;19.40;96.10;;;;;;5499912;26;20325;-64
2024/04/09 09:39:55;;;;;;;9.60;8.70;;;19.30;95.90;;;;;;5503465;26;20510;-63
2024/04/09 09:42:21;;;;;;;13.30;9.13;;;19.30;96.00;;;;;;5495616;26;20818;-63
2024/04/09 09:44:52;;;;;;;12.30;9.43;;;19.30;96.10;;;;;;5496691;26;20494;-64
2024/04/09 09:47:19;;;;;;;11.60;9.07;;;19.20;96.20;;;;;;5494312;26;20442;-64
2024/04/09 09:49:49;;;;;;;12.23;10.00;;;19.30;95.90;;;;;;5493791;26;20960;-64
2024/04/09 09:52:15;;;;;;;13.20;9.70;;;19.20;95.90;;;;;;5493821;26;20482;-62
2024/04/09 09:54:45;;;;;;;10.03;9.03;;;19.20;96.20;;;;;;5492670;26;20454;-63
2024/04/09 09:57:18;;;;;;;11.27;9.40;;;19.20;96.40;;;;;;5492601;26;20967;-65
2024/04/09 09:59:51;;;;;;;10.70;9.53;;;19.30;96.40;;;;;;5492890;26;20536;-64
2024/04/09 10:02:19;;;;;;;10.90;9.23;;;19.40;96.30;;;;;;5493298;26;20461;-63
2024/04/09 10:04:48;;;;;;;13.07;10.63;;;19.40;96.10;;;;;;5495068;26;20513;-64
2024/04/09 10:07:16;;;;;;;11.00;8.97;;;19.50;95.70;;;;;;5493794;26;20506;-64
2024/04/09 10:09:46;;;;;;;14.97;10.13;;;19.50;95.60;;;;;;5496691;26;20594;-64
2024/04/09 10:12:22;;;;;;;10.30;9.47;;;19.40;95.40;;;;;;5501553;26;20497;-62
2024/04/09 10:15:01;;;;;;;13.83;9.93;;;19.30;95.90;;;;;;5502630;26;20509;-64
2024/04/09 10:17:29;;;;;;;12.90;8.50;;;19.30;95.80;;;;;;5501374;26;20497;-66
2024/04/09 10:19:58;;;;;;;12.20;7.73;;;19.30;95.90;;;;;;5498200;26;20916;-65
2024/04/09 10:22:27;;;;;;;6.90;5.87;;;19.40;95.40;;;;;;5496086;26;20507;-64
2024/04/09 10:24:55;;;;;;;9.77;6.70;;;19.40;94.90;;;;;;5495850;26;20824;-64
2024/04/09 10:27:25;;;;;;;7.80;6.30;;;19.40;94.50;;;;;;5495111;26;21122;-64
2024/04/09 10:29:54;;;;;;;8.53;5.87;;;19.40;93.70;;;;;;5494305;26;20490;-64
2024/04/09 10:32:24;;;;;;;6.77;5.77;;;19.50;93.50;;;;;;5492369;26;20462;-64
2024/04/09 10:34:53;;;;;;;7.30;5.23;;;19.40;93.30;;;;;;5492923;26;20490;-64
2024/04/09 10:37:19;;;;;;;9.47;5.70;;;19.40;93.10;;;;;;5493821;26;20521;-64
2024/04/09 10:39:48;;;;;;;5.13;4.53;;;19.30;93.00;;;;;;5493766;26;20555;-65
2024/04/09 10:42:18;;;;;;;5.70;4.47;;;19.20;93.10;;;;;;5493133;26;20522;-64
2024/04/09 10:44:50;;;;;;;8.33;5.40;;;19.10;93.80;;;;;;5492755;26;20446;-64
2024/04/09 10:47:17;;;;;;;10.23;5.23;;;19.20;94.00;;;;;;5492635;26;20571;-64
2024/04/09 10:49:45;;;;;;;6.70;5.60;;;19.10;94.20;;;;;;5492269;26;20506;-64
2024/04/09 10:52:12;;;;;;;6.43;5.20;;;19.20;94.60;;;;;;5497517;26;20470;-64
2024/04/09 10:54:41;;;;;;;6.87;5.07;;;19.10;94.70;;;;;;5500296;26;20450;-64
2024/04/09 10:57:06;;;;;;;7.43;5.40;;;19.10;95.10;;;;;;5499852;26;20453;-64
2024/04/09 10:59:35;;;;;;;7.73;4.77;;;19.00;95.50;;;;;;5494902;26;20450;-65
2024/04/09 11:02:06;;;;;;;10.10;4.93;;;19.00;95.80;;;;;;5494597;26;20470;-64
2024/04/09 11:04:36;;;;;;;5.40;4.80;;;19.00;95.80;;;;;;5495042;26;20450;-63
2024/04/09 11:07:03;;;;;;;7.30;4.10;;;18.80;95.80;;;;;;5493360;26;20506;-63
2024/04/09 11:09:31;;;;;;;4.07;3.67;;;18.70;96.30;;;;;;5493561;26;20841;-64
2024/04/09 11:11:58;;;;;;;4.00;3.27;;;18.40;96.70;;;;;;5495095;26;20572;-63
2024/04/09 11:14:27;;;;;;;4.23;2.57;;;18.30;97.50;;;;;;5494236;26;20496;-64
2024/04/09 11:16:53;;;;;;;3.20;2.13;;;17.70;99.90;;;;;;5493302;26;20445;-64
2024/04/09 11:19:25;;;;;;;3.47;2.40;;;16.80;99.90;;;;;;5493296;26;20462;-63
2024/04/09 11:21:51;;;;;;;3.07;2.17;;;16.10;99.90;;;;;;5491801;26;20221;-64
2024/04/09 11:24:21;;;;;;;4.70;2.27;;;15.60;99.90;;;;;;5492613;26;20506;-64
2024/04/09 11:26:47;;;;;;;2.87;2.50;;;15.20;99.90;;;;;;5493412;26;20752;-64
2024/04/09 11:29:23;;;;;;;2.67;2.10;;;14.90;99.90;;;;;;5495851;26;20808;-65
2024/04/09 11:31:49;;;;;;;3.40;2.40;;;14.60;99.90;;;;;;5498150;26;20470;-64
2024/04/09 11:34:31;;;;;;;2.70;2.47;;;14.50;99.90;;;;;;5497943;26;20488;-64
2024/04/09 11:36:58;;;;;;;3.10;2.80;;;14.40;99.90;;;;;;5498528;26;21100;-64
2024/04/09 11:39:28;;;;;;;3.80;3.17;;;14.30;99.90;;;;;;5496998;26;20446;-64
2024/04/09 11:41:54;;;;;;;4.93;3.10;;;14.20;99.90;;;;;;5497904;26;20466;-65
2024/04/09 11:44:22;;;;;;;3.90;2.77;;;14.20;99.90;;;;;;5496741;26;20529;-65
2024/04/09 11:46:49;;;;;;;3.30;3.00;;;14.10;99.90;;;;;;5500118;26;20533;-64
2024/04/09 11:49:17;;;;;;;3.43;2.50;;;14.10;99.90;;;;;;5500745;26;20533;-66
2024/04/09 11:51:46;;;;;;;3.90;3.30;;;14.10;99.90;;;;;;5498566;26;20462;-65
2024/04/09 11:54:15;;;;;;;4.60;3.47;;;14.20;99.90;;;;;;5500585;26;20442;-65
2024/04/09 11:56:41;;;;;;;4.17;2.97;;;14.40;99.90;;;;;;5493865;26;20514;-65
2024/04/09 11:59:11;;;;;;;5.40;2.80;;;14.50;99.90;;;;;;5493789;26;20458;-65
2024/04/09 12:01:37;;;;;;;2.67;2.30;;;14.60;99.90;;;;;;5493959;26;20461;-65
2024/04/09 12:04:05;;;;;;;6.10;1.93;;;14.80;99.90;;;;;;5493299;26;20503;-64
2024/04/09 12:06:31;;;;;;;2.00;1.70;;;14.90;99.90;;;;;;5491908;26;20275;-65
2024/04/09 12:09:02;;;;;;;2.00;1.40;;;14.90;99.90;;;;;;5491512;26;21089;-65
2024/04/09 12:11:28;;;;;;;1.70;1.40;;;14.90;99.90;;;;;;5491531;26;20260;-65
2024/04/09 12:13:57;;;;;;;2.53;1.30;;;14.80;99.90;;;;;;5491279;26;20462;-65
2024/04/09 12:16:22;;;;;;;1.73;1.27;;;14.80;99.90;;;;;;5491329;26;20348;-65
2024/04/09 12:18:51;;;;;;;2.90;1.70;;;14.70;99.90;;;;;;5490588;26;20450;-63
2024/04/09 12:21:18;;;;;;;1.27;1.13;;;14.80;99.90;;;;;;5490677;26;20292;-64
2024/04/09 12:23:46;;;;;;;5.23;1.50;;;14.70;99.90;;;;;;5492327;26;20450;-63
2024/04/09 12:26:14;;;;;;;3.00;1.30;;;14.70;99.90;;;;;;5493136;26;20624;-63
2024/04/09 12:28:43;;;;;;;1.60;1.50;;;14.70;99.40;;;;;;5493868;26;20533;-64
2024/04/09 12:31:09;;;;;;;1.40;1.20;;;14.70;98.90;;;;;;5492216;26;20450;-64
2024/04/09 12:33:37;;;;;;;3.50;1.60;;;14.60;98.50;;;;;;5495025;26;20553;-65
2024/04/09 12:36:04;;;;;;;2.23;1.60;;;14.60;98.50;;;;;;5497905;26;20308;-64
2024/04/09 12:38:32;;;;;;;5.37;1.87;;;14.60;98.40;;;;;;5497964;26;20780;-63
2024/04/09 12:41:01;;;;;;;2.17;1.33;;;14.60;97.80;;;;;;5497216;26;20912;-65
2024/04/09 12:43:29;;;;;;;2.90;1.20;;;14.50;96.80;;;;;;5497916;26;20458;-66
2024/04/09 12:45:58;;;;;;;1.97;1.57;;;14.50;96.30;;;;;;5500545;26;20540;-65
2024/04/09 12:48:23;;;;;;;4.17;1.60;;;14.40;94.20;;;;;;5500108;26;20442;-64